Time;durP1;ratioP1;P1;durP2;ratioP2;P2;SDS_P1;SDS_P2;PMS_P1;PMS_P2;Temp;Humidity;BMP_temperature;BMP_pressure;BME280_temperature;BME280_humidity;BME280_pressure;Samples;Min_cycle;Max_cycle;Signal;HPM_P1;HPM_P2
2023/06/17 00:00:52;;;;;;;13.20;7.63;;;;;;;15.15;94.30;98547.31;4995887;28;20162;-92
2023/06/17 00:03:18;;;;;;;12.57;7.95;;;;;;;15.00;95.53;98524.84;4995974;28;20129;-94
2023/06/17 00:05:44;;;;;;;14.85;7.93;;;;;;;14.97;94.56;98530.34;4995927;28;20065;-93
2023/06/17 00:08:09;;;;;;;9.98;7.25;;;;;;;14.95;94.59;98537.59;4996319;28;20042;-92
2023/06/17 00:10:35;;;;;;;12.68;7.10;;;;;;;14.92;93.33;98538.63;4996419;28;20054;-92
2023/06/17 00:13:03;;;;;;;10.30;6.97;;;;;;;14.92;93.29;98548.44;4996033;28;20070;-91
2023/06/17 00:15:32;;;;;;;14.20;7.30;;;;;;;14.84;93.76;98534.56;4995636;28;20128;-93
2023/06/17 00:18:00;;;;;;;13.43;8.38;;;;;;;14.76;95.85;98522.41;4994970;28;20132;-92
2023/06/17 00:20:26;;;;;;;9.77;7.25;;;;;;;14.85;97.22;98555.91;4995537;28;20030;-92
2023/06/17 00:22:52;;;;;;;13.77;8.13;;;;;;;14.57;99.81;98513.53;4995986;28;20456;-92
2023/06/17 00:25:18;;;;;;;14.88;7.82;;;;;;;14.71;100.00;98556.56;4996129;28;20054;-93
2023/06/17 00:27:44;;;;;;;12.15;7.88;;;;;;;14.67;100.00;98543.41;4996204;28;20114;-93
2023/06/17 00:30:12;;;;;;;12.48;7.90;;;;;;;14.80;100.00;98549.91;4995827;28;20036;-92
2023/06/17 00:32:38;;;;;;;11.57;7.97;;;;;;;14.68;100.00;98534.41;4995743;28;20042;-92
2023/06/17 00:35:05;;;;;;;11.52;7.78;;;;;;;14.78;96.68;98533.06;4995352;28;20038;-92
2023/06/17 00:37:31;;;;;;;11.48;6.85;;;;;;;14.82;94.99;98525.75;4995426;28;20120;-91
2023/06/17 00:39:58;;;;;;;11.43;7.47;;;;;;;14.97;93.39;98544.59;4995218;28;20054;-92
2023/06/17 00:42:24;;;;;;;14.77;7.57;;;;;;;14.91;93.81;98552.94;4995737;28;20045;-93
2023/06/17 00:44:50;;;;;;;15.95;7.95;;;;;;;14.71;97.85;98531.63;4996074;28;20046;-94
2023/06/17 00:47:17;;;;;;;14.02;7.57;;;;;;;14.78;99.17;98554.47;4995496;28;20420;-93
2023/06/17 00:49:45;;;;;;;16.48;8.30;;;;;;;14.64;98.24;98539.06;4995771;28;20556;-92
2023/06/17 00:52:13;;;;;;;13.40;7.77;;;;;;;14.79;94.98;98537.47;4995798;28;20038;-93
2023/06/17 00:54:40;;;;;;;10.50;7.72;;;;;;;14.98;92.08;98550.81;4995850;28;20038;-93
2023/06/17 00:57:09;;;;;;;14.07;8.40;;;;;;;14.85;93.67;98558.56;4995819;28;20048;-91
2023/06/17 00:59:36;;;;;;;;;;;;;;;14.81;97.27;98607.84;4995160;28;20105;-93
2023/06/17 01:02:02;;;;;;;15.80;8.98;;;;;;;14.53;100.00;98568.09;4994999;28;19922;-93
2023/06/17 01:04:31;;;;;;;16.85;9.18;;;;;;;14.67;99.38;98559.47;4996024;28;20046;-91
2023/06/17 01:07:03;;;;;;;12.52;8.57;;;;;;;14.75;97.14;98522.50;4992253;28;20045;-93
2023/06/17 01:09:33;;;;;;;14.68;8.77;;;;;;;15.07;93.67;98514.69;4988115;28;20056;-92
2023/06/17 01:12:00;;;;;;;14.65;8.73;;;;;;;15.26;94.15;98557.50;4995034;28;20496;-92
2023/06/17 01:14:27;;;;;;;13.98;8.80;;;;;;;15.17;93.31;98562.38;4995123;28;20065;-93
2023/06/17 01:16:54;;;;;;;13.07;8.82;;;;;;;15.18;92.47;98568.63;4996401;28;20072;-93
2023/06/17 01:19:24;;;;;;;13.55;8.35;;;;;;;15.27;91.29;98578.00;4995118;28;20042;-93
2023/06/17 01:21:53;;;;;;;15.80;9.45;;;;;;;15.23;92.67;98593.34;4994963;28;20073;-94
2023/06/17 01:24:27;;;;;;;;;;;;;;;15.22;93.44;98605.00;4995965;28;20057;-93
2023/06/17 01:26:56;;;;;;;16.00;9.48;;;;;;;15.00;92.28;98565.88;4977085;28;20044;-92
2023/06/17 01:29:23;;;;;;;14.65;8.82;;;;;;;14.94;93.90;98574.22;4995104;28;20558;-93
2023/06/17 01:31:49;;;;;;;14.55;9.07;;;;;;;14.90;94.84;98583.34;4995183;28;20042;-93
2023/06/17 01:34:17;;;;;;;15.25;9.68;;;;;;;14.77;96.97;98590.22;4995504;28;20041;-93
2023/06/17 01:36:45;;;;;;;17.60;9.60;;;;;;;14.50;98.63;98553.03;4995050;28;20043;-92
2023/06/17 01:39:16;;;;;;;16.50;9.30;;;;;;;14.65;97.79;98574.72;4994851;28;20042;-92
2023/06/17 01:41:48;;;;;;;17.52;9.20;;;;;;;14.53;97.71;98555.59;4994441;28;20066;-91
2023/06/17 01:44:16;;;;;;;14.85;9.20;;;;;;;14.46;100.00;98546.09;4994054;28;20488;-92
2023/06/17 01:46:42;;;;;;;21.27;10.02;;;;;;;14.55;100.00;98560.88;4995230;28;20047;-92
2023/06/17 01:49:08;;;;;;;17.98;9.90;;;;;;;14.49;100.00;98548.66;4995451;28;20069;-93
2023/06/17 01:51:35;;;;;;;16.90;9.75;;;;;;;14.47;100.00;98545.16;4994972;28;20089;-94
2023/06/17 01:54:01;;;;;;;17.88;10.38;;;;;;;14.61;100.00;98568.63;4995034;28;20038;-92
2023/06/17 01:56:27;;;;;;;15.75;9.18;;;;;;;14.67;100.00;98581.72;4994851;28;20416;-93
2023/06/17 01:58:54;;;;;;;17.02;10.57;;;;;;;14.65;100.00;98572.91;4995390;28;20464;-93
2023/06/17 02:01:20;;;;;;;17.08;10.35;;;;;;;14.68;100.00;98566.53;4994958;28;20042;-92
2023/06/17 02:03:46;;;;;;;19.35;11.13;;;;;;;14.46;100.00;98545.25;4994811;28;20526;-92
2023/06/17 02:06:12;;;;;;;20.88;11.45;;;;;;;14.42;100.00;98555.22;4994371;28;20043;-93
2023/06/17 02:08:38;;;;;;;19.30;10.90;;;;;;;14.45;100.00;98575.63;4995208;28;20145;-94
2023/06/17 02:11:04;;;;;;;18.27;10.90;;;;;;;14.20;100.00;98549.09;4998157;28;20076;-93
2023/06/17 02:13:30;;;;;;;20.73;10.98;;;;;;;14.30;100.00;98564.66;4998428;28;20043;-93
2023/06/17 02:15:57;;;;;;;20.77;11.38;;;;;;;14.15;100.00;98535.94;4998248;28;20531;-93
2023/06/17 02:18:24;;;;;;;19.73;10.77;;;;;;;14.16;100.00;98556.38;4998773;28;20053;-93
2023/06/17 02:20:50;;;;;;;19.92;10.77;;;;;;;13.95;100.00;98520.81;4997680;28;20054;-91
2023/06/17 02:23:16;;;;;;;23.77;11.43;;;;;;;14.05;100.00;98553.34;4997464;28;20047;-92
2023/06/17 02:25:42;;;;;;;21.77;10.55;;;;;;;13.91;100.00;98540.59;4998251;28;20042;-92
2023/06/17 02:28:08;;;;;;;19.15;10.38;;;;;;;13.81;100.00;98542.78;4998125;28;20046;-92
2023/06/17 02:30:34;;;;;;;18.90;9.82;;;;;;;13.93;100.00;98571.66;4997878;28;20088;-94
2023/06/17 02:33:01;;;;;;;16.15;10.43;;;;;;;13.67;100.00;98538.06;4997920;28;20073;-91
2023/06/17 02:35:27;;;;;;;19.00;10.98;;;;;;;13.82;100.00;98538.34;4997714;28;20047;-92
2023/06/17 02:37:54;;;;;;;19.90;10.75;;;;;;;13.86;100.00;98550.63;4998010;28;20046;-93
2023/06/17 02:40:20;;;;;;;18.52;10.20;;;;;;;13.96;100.00;98568.84;4998503;28;20042;-93
2023/06/17 02:42:46;;;;;;;21.05;11.43;;;;;;;14.04;100.00;98544.44;4998512;28;20038;-92
2023/06/17 02:45:12;;;;;;;17.30;10.98;;;;;;;14.28;100.00;98560.34;4997255;28;20466;-93
2023/06/17 02:47:38;;;;;;;21.27;10.65;;;;;;;14.44;100.00;98576.53;4998157;28;20038;-94
2023/06/17 02:50:07;;;;;;;16.52;9.48;;;;;;;14.50;100.00;98574.44;4997371;28;20057;-93
2023/06/17 02:52:34;;;;;;;19.15;10.43;;;;;;;14.53;100.00;98585.03;4997300;28;20042;-93
2023/06/17 02:55:01;;;;;;;18.48;10.50;;;;;;;14.45;100.00;98576.47;4997384;28;20034;-94
2023/06/17 02:57:27;;;;;;;18.38;10.52;;;;;;;14.41;100.00;98587.41;4997823;28;20038;-92
2023/06/17 02:59:52;;;;;;;19.20;10.77;;;;;;;14.21;100.00;98553.53;4997277;28;20117;-94
2023/06/17 03:02:18;;;;;;;20.40;10.60;;;;;;;14.44;100.00;98585.44;4997455;28;20042;-93
2023/06/17 03:04:45;;;;;;;19.52;10.80;;;;;;;14.49;100.00;98579.91;4997740;28;20042;-93
2023/06/17 03:07:15;;;;;;;21.10;10.60;;;;;;;14.30;100.00;98558.47;4997461;28;20042;-92
2023/06/17 03:09:41;;;;;;;19.23;10.60;;;;;;;14.37;100.00;98581.31;4997320;28;20069;-94
2023/06/17 03:12:08;;;;;;;21.00;11.43;;;;;;;14.20;100.00;98560.66;4997351;28;20054;-94
2023/06/17 03:14:34;;;;;;;17.30;10.23;;;;;;;14.07;100.00;98536.28;4997306;28;20078;-92
2023/06/17 03:17:00;;;;;;;20.92;10.75;;;;;;;14.23;100.00;98578.41;4997012;28;20496;-94
2023/06/17 03:19:27;;;;;;;20.75;10.45;;;;;;;14.03;100.00;98563.22;4997953;28;20046;-92
2023/06/17 03:21:53;;;;;;;19.40;10.95;;;;;;;13.95;100.00;98552.88;4996886;28;20519;-93
2023/06/17 03:24:21;;;;;;;19.33;10.65;;;;;;;13.90;100.00;98553.09;4997317;28;20038;-94
2023/06/17 03:26:47;;;;;;;22.30;10.57;;;;;;;13.84;100.00;98545.34;4997539;28;20042;-94
2023/06/17 03:29:13;;;;;;;22.20;10.90;;;;;;;14.06;100.00;98579.16;4997075;28;20047;-91
2023/06/17 03:31:38;;;;;;;16.95;10.75;;;;;;;13.98;100.00;98563.44;4996236;28;20526;-94
2023/06/17 03:34:05;;;;;;;20.27;11.57;;;;;;;13.96;100.00;98571.50;4997294;28;20046;-94
2023/06/17 03:36:30;;;;;;;23.70;12.32;;;;;;;13.97;100.00;98564.38;4997872;28;20050;-94
2023/06/17 03:38:57;;;;;;;19.13;11.20;;;;;;;14.00;100.00;98545.53;4997157;28;20039;-93
2023/06/17 03:41:25;;;;;;;23.00;12.25;;;;;;;14.02;100.00;98556.16;4997348;28;20046;-94
2023/06/17 03:43:51;;;;;;;28.45;12.65;;;;;;;13.84;100.00;98531.97;4996567;28;20129;-92
2023/06/17 03:46:17;;;;;;;22.35;12.35;;;;;;;13.88;100.00;98552.28;4997063;28;20050;-94
2023/06/17 03:48:43;;;;;;;24.38;11.32;;;;;;;13.75;100.00;98548.44;4996732;28;20118;-94
2023/06/17 03:51:08;;;;;;;22.23;11.65;;;;;;;13.89;100.00;98572.72;4976758;28;20069;-94
2023/06/17 03:53:34;;;;;;;20.88;11.85;;;;;;;13.79;100.00;98541.13;4984989;28;20506;-95
2023/06/17 03:56:00;;;;;;;23.95;11.95;;;;;;;13.80;100.00;98534.84;4996515;28;20116;-94
2023/06/17 03:58:28;;;;;;;23.13;12.80;;;;;;;14.03;100.00;98573.91;4993670;28;20050;-93
2023/06/17 04:00:54;;;;;;;27.83;12.25;;;;;;;13.84;100.00;98547.16;4989448;28;20501;-93
2023/06/17 04:03:24;;;;;;;25.17;13.00;;;;;;;13.99;100.00;98546.47;4996033;28;20177;-92
2023/06/17 04:05:50;;;;;;;22.77;11.88;;;;;;;13.87;100.00;98533.66;4995782;28;20043;-93
2023/06/17 04:08:18;;;;;;;28.08;13.25;;;;;;;13.91;100.00;98541.47;4996208;28;20042;-94
2023/06/17 04:10:44;;;;;;;28.55;13.32;;;;;;;14.16;100.00;98565.31;4996272;28;20077;-94
2023/06/17 04:13:10;;;;;;;31.85;14.77;;;;;;;14.15;100.00;98560.00;4996199;28;20547;-94
2023/06/17 04:15:37;;;;;;;28.77;15.75;;;;;;;14.17;100.00;98563.50;4996422;28;20497;-94
2023/06/17 04:18:03;;;;;;;27.33;14.48;;;;;;;14.07;100.00;98551.47;4996907;28;20050;-95
2023/06/17 04:20:29;;;;;;;33.05;15.45;;;;;;;14.00;100.00;98547.34;4996393;28;20096;-93
2023/06/17 04:22:55;;;;;;;37.60;17.60;;;;;;;14.23;100.00;98584.63;4997349;28;20437;-93
2023/06/17 04:25:22;;;;;;;43.50;18.55;;;;;;;13.91;100.00;98545.94;4996308;28;20058;-93
2023/06/17 04:27:53;;;;;;;45.75;19.38;;;;;;;14.07;100.00;98588.91;4996528;28;20548;-93
2023/06/17 04:30:19;;;;;;;39.97;17.55;;;;;;;13.73;100.00;98551.16;4996654;28;20050;-94
2023/06/17 04:32:47;;;;;;;37.42;16.85;;;;;;;13.81;100.00;98552.63;4995718;28;20046;-93
2023/06/17 04:35:12;;;;;;;31.63;16.60;;;;;;;13.97;100.00;98569.72;4996322;28;20042;-92
2023/06/17 04:37:40;;;;;;;34.10;16.85;;;;;;;14.12;100.00;98589.59;4996092;28;20058;-93
2023/06/17 04:40:11;;;;;;;36.67;15.35;;;;;;;14.12;100.00;98562.84;4996537;28;20049;-93
2023/06/17 04:42:40;;;;;;;34.08;15.95;;;;;;;14.18;100.00;98563.44;4996216;28;20075;-93
2023/06/17 04:45:08;;;;;;;34.03;15.93;;;;;;;14.26;100.00;98565.75;4995711;28;20034;-94
2023/06/17 04:47:35;;;;;;;33.13;14.87;;;;;;;14.51;100.00;98586.03;4995633;28;20566;-93
2023/06/17 04:50:03;;;;;;;33.33;15.27;;;;;;;14.67;100.00;98556.78;4996141;28;20375;-93
2023/06/17 04:52:30;;;;;;;34.65;16.08;;;;;;;15.35;100.00;98557.03;4996170;28;20077;-94
2023/06/17 04:54:56;;;;;;;35.13;15.40;;;;;;;15.91;98.24;98549.78;4996047;28;20126;-93
2023/06/17 04:57:22;;;;;;;38.47;16.55;;;;;;;16.37;92.97;98574.16;4995860;28;20497;-93
2023/06/17 04:59:48;;;;;;;30.75;15.85;;;;;;;16.69;89.06;98563.47;4995688;28;20071;-93
2023/06/17 05:02:14;;;;;;;33.40;16.77;;;;;;;17.07;86.46;98563.16;4995679;28;20133;-93
2023/06/17 05:04:40;;;;;;;33.22;14.88;;;;;;;17.36;83.96;98548.94;4995168;28;20057;-93
2023/06/17 05:07:08;;;;;;;27.10;14.80;;;;;;;17.82;79.71;98559.69;4995412;28;20411;-93
2023/06/17 05:09:34;;;;;;;27.10;14.25;;;;;;;17.92;77.27;98556.47;4996415;28;20501;-95
2023/06/17 05:11:59;;;;;;;27.88;14.50;;;;;;;17.77;76.07;98559.06;4996535;28;20073;-94
2023/06/17 05:14:25;;;;;;;30.98;14.10;;;;;;;18.25;75.26;98573.22;4995584;28;20476;-94
2023/06/17 05:16:51;;;;;;;29.25;14.50;;;;;;;18.37;73.41;98565.38;4996288;28;20100;-94
2023/06/17 05:19:17;;;;;;;28.83;13.95;;;;;;;18.75;70.28;98576.41;4997027;28;20465;-95
2023/06/17 05:21:43;;;;;;;30.75;14.75;;;;;;;18.57;70.17;98564.97;4997425;28;20066;-92
2023/06/17 05:24:10;;;;;;;32.83;13.23;;;;;;;18.91;69.20;98552.09;4997410;28;20045;-95
2023/06/17 05:26:36;;;;;;;30.42;14.27;;;;;;;19.15;68.18;98581.06;4995852;28;20077;-92
2023/06/17 05:29:02;;;;;;;27.23;14.10;;;;;;;18.52;72.00;98566.22;4995903;28;20062;-93
2023/06/17 05:31:28;;;;;;;27.05;14.75;;;;;;;18.88;69.33;98595.38;4995659;28;20050;-93
2023/06/17 05:33:54;;;;;;;27.38;13.63;;;;;;;18.99;69.83;98565.03;4997299;28;20492;-94
2023/06/17 05:36:20;;;;;;;22.88;12.90;;;;;;;19.25;69.42;98587.59;4996287;28;20042;-92
2023/06/17 05:38:46;;;;;;;27.00;13.20;;;;;;;19.36;69.11;98563.50;4995863;28;20058;-94
2023/06/17 05:41:13;;;;;;;26.92;12.68;;;;;;;18.72;71.08;98573.06;4996149;28;20054;-94
2023/06/17 05:43:39;;;;;;;24.38;12.63;;;;;;;19.16;67.77;98593.59;4995932;28;20043;-93
2023/06/17 05:46:05;;;;;;;23.90;12.32;;;;;;;19.23;67.68;98600.31;4999829;28;20042;-94
2023/06/17 05:48:31;;;;;;;22.25;12.10;;;;;;;19.38;67.38;98604.69;5000321;28;20065;-93
2023/06/17 05:50:57;;;;;;;23.25;12.73;;;;;;;19.40;65.11;98569.56;4999979;28;20054;-94
2023/06/17 05:53:23;;;;;;;25.05;12.23;;;;;;;19.52;64.04;98565.16;5001683;28;20523;-95
2023/06/17 05:55:49;;;;;;;22.00;11.88;;;;;;;19.41;64.96;98566.75;5001702;28;20523;-93
2023/06/17 05:58:17;;;;;;;18.95;11.20;;;;;;;19.83;62.84;98578.34;5000381;28;20081;-95
2023/06/17 06:00:42;;;;;;;19.42;11.63;;;;;;;20.05;62.41;98587.69;5000987;28;20042;-93
2023/06/17 06:03:08;;;;;;;18.92;11.52;;;;;;;19.62;65.22;98582.47;4999642;28;20057;-93
2023/06/17 06:05:35;;;;;;;20.73;11.75;;;;;;;19.87;65.34;98558.28;5000285;28;20050;-95
2023/06/17 06:08:00;;;;;;;22.10;12.18;;;;;;;20.17;62.50;98567.94;5000229;28;20097;-93
2023/06/17 06:10:28;;;;;;;21.95;11.45;;;;;;;20.52;62.67;98578.09;5000749;28;20047;-93
2023/06/17 06:12:54;;;;;;;18.48;11.07;;;;;;;20.63;62.43;98590.88;5000540;28;20074;-93
2023/06/17 06:15:22;;;;;;;23.75;12.10;;;;;;;20.91;62.50;98595.16;5000467;28;20042;-93
2023/06/17 06:17:48;;;;;;;20.17;10.75;;;;;;;21.21;61.52;98593.88;4998686;28;20469;-94
2023/06/17 06:20:14;;;;;;;18.60;11.23;;;;;;;21.05;61.84;98570.69;4999233;28;20042;-93
2023/06/17 06:22:40;;;;;;;22.67;11.55;;;;;;;21.24;61.24;98582.88;5002100;28;20047;-94
2023/06/17 06:25:07;;;;;;;19.38;11.70;;;;;;;21.36;60.66;98581.97;5004184;28;20102;-93
2023/06/17 06:27:33;;;;;;;19.20;11.57;;;;;;;21.39;60.72;98580.88;5004822;28;20050;-93
2023/06/17 06:29:59;;;;;;;21.27;11.32;;;;;;;21.50;60.06;98578.25;5003840;28;20496;-93
2023/06/17 06:32:27;;;;;;;20.13;10.98;;;;;;;21.75;59.50;98593.47;5003039;28;20042;-96
2023/06/17 06:34:53;;;;;;;18.40;10.88;;;;;;;21.80;60.32;98588.59;5002023;28;20062;-95
2023/06/17 06:37:19;;;;;;;20.50;10.73;;;;;;;22.05;60.10;98602.97;5002209;28;20059;-94
2023/06/17 06:39:45;;;;;;;19.40;11.55;;;;;;;22.06;58.79;98580.31;5000663;28;20073;-94
2023/06/17 06:42:11;;;;;;;19.35;11.13;;;;;;;22.17;58.60;98582.22;5000514;28;20472;-93
2023/06/17 06:44:37;;;;;;;16.58;11.00;;;;;;;22.23;58.59;98593.47;5000769;28;20611;-92
2023/06/17 06:47:04;;;;;;;21.05;11.32;;;;;;;22.49;58.71;98606.81;5000477;28;20070;-95
2023/06/17 06:49:31;;;;;;;18.63;10.90;;;;;;;22.60;58.72;98600.50;5000916;28;20081;-94
2023/06/17 06:51:57;;;;;;;19.58;10.57;;;;;;;22.61;58.74;98596.84;5000441;28;20050;-95
2023/06/17 06:54:23;;;;;;;20.40;11.27;;;;;;;22.76;58.15;98609.16;5000944;28;20038;-94
2023/06/17 06:56:49;;;;;;;19.13;11.13;;;;;;;22.79;58.40;98627.03;5000065;28;20047;-94
2023/06/17 06:59:16;;;;;;;19.95;11.40;;;;;;;22.38;58.77;98606.78;5001803;28;20046;-93
2023/06/17 07:01:42;;;;;;;18.17;10.73;;;;;;;22.45;59.77;98605.31;5012777;28;20054;-95
2023/06/17 07:04:15;;;;;;;19.65;11.73;;;;;;;22.60;58.57;98603.22;5014030;28;20061;-96
2023/06/17 07:06:43;;;;;;;18.48;11.02;;;;;;;22.75;58.81;98605.59;5012985;28;20042;-95
2023/06/17 07:09:09;;;;;;;20.60;11.87;;;;;;;22.88;57.49;98599.16;5011326;28;20457;-95
2023/06/17 07:11:36;;;;;;;17.77;11.55;;;;;;;23.24;57.59;98617.06;5009584;28;20046;-95
2023/06/17 07:14:04;;;;;;;22.38;10.77;;;;;;;23.26;57.64;98597.97;5010107;28;20117;-95
2023/06/17 07:16:31;;;;;;;19.23;10.88;;;;;;;23.42;56.54;98593.00;5010141;28;20034;-95
2023/06/17 07:18:57;;;;;;;19.92;10.82;;;;;;;23.75;56.46;98629.19;5011658;28;20096;-95
2023/06/17 07:21:23;;;;;;;17.27;11.02;;;;;;;23.66;56.23;98592.81;5011234;28;20042;-94
2023/06/17 07:23:51;;;;;;;17.67;10.77;;;;;;;23.75;55.27;98591.16;5009068;28;20046;-96
2023/06/17 07:26:17;;;;;;;17.90;10.50;;;;;;;23.82;54.73;98595.13;5010709;28;20428;-95
2023/06/17 07:28:46;;;;;;;19.73;10.95;;;;;;;23.81;54.54;98597.94;5011050;28;20122;-95
2023/06/17 07:31:14;;;;;;;19.88;10.35;;;;;;;23.04;57.43;98590.72;5014454;28;20077;-95
2023/06/17 07:33:41;;;;;;;17.27;11.17;;;;;;;23.28;56.38;98594.13;5013060;28;20042;-95
2023/06/17 07:36:08;;;;;;;19.33;11.02;;;;;;;23.16;57.95;98589.69;5013835;28;20084;-95
2023/06/17 07:38:37;;;;;;;20.55;11.05;;;;;;;23.36;56.24;98593.50;5013243;28;20050;-96
2023/06/17 07:41:05;;;;;;;20.77;10.85;;;;;;;23.56;56.39;98595.41;5012425;28;20047;-95
2023/06/17 07:43:32;;;;;;;;;;;;;;;23.89;54.79;98623.47;5012453;28;20042;-96
2023/06/17 07:45:58;;;;;;;23.67;11.40;;;;;;;23.36;55.28;98602.50;5013813;28;19936;-94
2023/06/17 07:48:33;;;;;;;19.83;10.90;;;;;;;22.96;55.93;98594.00;5014406;28;20085;-95
2023/06/17 07:51:03;;;;;;;17.27;10.35;;;;;;;23.30;57.62;98621.13;5013491;28;20034;-95
2023/06/17 07:53:31;;;;;;;18.55;10.75;;;;;;;23.70;55.79;98594.28;5013843;28;20046;-96
2023/06/17 07:56:32;;;;;;;19.85;9.57;;;;;;;24.02;54.29;98596.13;5013990;28;20118;-95
2023/06/17 07:59:23;;;;;;;17.17;11.63;;;;;;;24.45;54.02;98589.72;5014538;28;20057;-95
2023/06/17 08:01:59;;;;;;;18.15;10.85;;;;;;;24.80;53.25;98586.63;4997189;28;20054;-95
2023/06/17 08:04:33;;;;;;;18.05;10.82;;;;;;;24.92;51.37;98589.28;5011406;28;20066;-96
2023/06/17 08:07:00;;;;;;;19.40;10.45;;;;;;;25.06;52.21;98601.66;5009977;28;20042;-95
2023/06/17 08:09:26;;;;;;;16.48;10.52;;;;;;;25.13;50.90;98613.69;5010966;28;20515;-95
2023/06/17 08:11:58;;;;;;;22.92;11.07;;;;;;;24.60;51.65;98590.28;5011616;28;20046;-96
2023/06/17 08:14:49;;;;;;;15.65;10.15;;;;;;;25.15;51.59;98622.56;5013614;28;20030;-95
2023/06/17 08:17:20;;;;;;;14.20;9.35;;;;;;;25.44;48.99;98616.38;5015062;28;20039;-95
2023/06/17 08:20:09;;;;;;;16.92;9.82;;;;;;;25.27;48.75;98588.00;5012298;28;20073;-96
2023/06/17 08:22:43;;;;;;;19.52;9.85;;;;;;;25.33;52.27;98588.31;5012709;28;20492;-96
2023/06/17 08:25:24;;;;;;;15.00;8.60;;;;;;;25.26;47.36;98611.63;5014487;28;20042;-94
2023/06/17 08:27:54;;;;;;;15.57;8.90;;;;;;;24.16;47.94;98617.56;5012098;28;20047;-94
2023/06/17 08:30:23;;;;;;;12.55;8.68;;;;;;;24.49;50.57;98584.91;5010764;28;20047;-95
2023/06/17 08:32:57;;;;;;;16.08;8.88;;;;;;;24.47;48.83;98585.00;5011050;28;20145;-95
2023/06/17 08:35:28;;;;;;;15.70;8.82;;;;;;;24.95;48.57;98578.97;5012974;28;20042;-95
2023/06/17 08:37:54;;;;;;;13.02;9.13;;;;;;;25.24;46.89;98596.44;5012121;28;20114;-95
2023/06/17 08:40:22;;;;;;;13.52;8.35;;;;;;;25.20;47.18;98579.53;5009018;28;20042;-96
2023/06/17 08:42:53;;;;;;;16.40;8.07;;;;;;;25.47;47.30;98576.16;5006672;28;20053;-95
2023/06/17 08:45:21;;;;;;;14.90;7.85;;;;;;;25.58;43.70;98580.59;5007264;28;20050;-94
2023/06/17 08:47:49;;;;;;;15.27;8.57;;;;;;;25.84;45.44;98586.34;5008229;28;20050;-94
2023/06/17 08:50:16;;;;;;;12.90;7.63;;;;;;;25.97;42.43;98581.50;5007687;28;20048;-95
2023/06/17 08:52:44;;;;;;;12.63;7.53;;;;;;;26.25;42.11;98595.25;5006900;28;20408;-95
2023/06/17 08:55:10;;;;;;;11.98;7.55;;;;;;;26.33;42.25;98579.06;5006283;28;20553;-95
2023/06/17 08:57:36;;;;;;;12.90;7.70;;;;;;;26.56;42.75;98597.81;5008374;28;20050;-95
2023/06/17 09:00:04;;;;;;;12.10;7.60;;;;;;;26.60;43.58;98582.88;5006746;28;20092;-94
2023/06/17 09:02:33;;;;;;;13.18;7.55;;;;;;;26.75;43.41;98588.72;5005602;28;20080;-94
2023/06/17 09:05:01;;;;;;;11.38;7.57;;;;;;;26.51;40.16;98603.69;5006459;28;20389;-94
2023/06/17 09:07:28;;;;;;;13.32;7.72;;;;;;;25.66;43.38;98583.47;5009319;28;20046;-94
2023/06/17 09:10:03;;;;;;;13.73;7.35;;;;;;;25.87;42.39;98585.22;5009281;28;20137;-94
2023/06/17 09:12:44;;;;;;;10.40;7.03;;;;;;;25.74;39.47;98591.81;5007157;28;20081;-95
2023/06/17 09:15:15;;;;;;;11.63;7.70;;;;;;;25.19;41.54;98588.66;5006515;28;20050;-94
2023/06/17 09:17:45;;;;;;;10.93;6.80;;;;;;;25.62;39.26;98585.63;5009497;28;20046;-95
2023/06/17 09:20:18;;;;;;;13.80;7.00;;;;;;;26.21;41.46;98593.84;5012952;28;20045;-95
2023/06/17 09:22:46;;;;;;;10.32;6.50;;;;;;;26.25;40.44;98586.25;5012461;28;20046;-95
2023/06/17 09:25:14;;;;;;;13.70;6.70;;;;;;;26.26;38.58;98591.53;5007990;28;20503;-94
2023/06/17 09:27:49;;;;;;;12.23;6.43;;;;;;;25.99;40.42;98590.41;5010884;28;20395;-95
2023/06/17 09:30:22;;;;;;;11.60;6.22;;;;;;;26.28;40.84;98592.25;5012792;28;20065;-95
2023/06/17 09:32:51;;;;;;;9.48;6.60;;;;;;;26.80;39.65;98606.34;5011594;28;20046;-94
2023/06/17 09:35:19;;;;;;;14.75;6.55;;;;;;;26.41;37.39;98598.28;5011298;28;20050;-94
2023/06/17 09:37:49;;;;;;;10.93;6.65;;;;;;;26.62;36.38;98610.88;5009357;28;20055;-95
2023/06/17 09:40:15;;;;;;;12.05;6.40;;;;;;;26.58;37.81;98599.38;5008367;28;20034;-94
2023/06/17 09:42:44;;;;;;;11.27;6.40;;;;;;;26.62;36.24;98587.19;5010420;28;20085;-95
2023/06/17 09:45:12;;;;;;;9.75;6.10;;;;;;;26.53;38.10;98598.94;5009166;28;20043;-95
2023/06/17 09:47:40;;;;;;;9.45;5.90;;;;;;;26.15;35.01;98584.34;5006783;28;20042;-95
2023/06/17 09:50:09;;;;;;;10.13;5.80;;;;;;;26.03;36.26;98575.50;5008321;28;20050;-96
2023/06/17 09:52:40;;;;;;;9.68;6.05;;;;;;;26.74;38.24;98598.78;5009323;28;20046;-94
2023/06/17 09:55:07;;;;;;;9.15;6.32;;;;;;;26.73;38.95;98577.09;5009025;28;20057;-94
2023/06/17 09:57:35;;;;;;;8.75;6.28;;;;;;;26.29;37.77;98574.91;5007155;28;20154;-96
2023/06/17 10:00:09;;;;;;;9.35;5.88;;;;;;;26.37;36.04;98564.13;5008782;28;20072;-95
2023/06/17 10:02:40;;;;;;;9.32;5.82;;;;;;;26.44;35.44;98584.34;5009300;28;20047;-96
2023/06/17 10:05:10;;;;;;;9.43;5.85;;;;;;;26.67;33.20;98586.72;5011862;28;20038;-96
2023/06/17 10:07:41;;;;;;;10.52;5.47;;;;;;;26.46;34.99;98567.84;5008599;28;20137;-95
2023/06/17 10:10:13;;;;;;;10.10;5.40;;;;;;;26.55;35.63;98563.34;5007626;28;20064;-95
2023/06/17 10:12:43;;;;;;;8.10;5.47;;;;;;;26.50;34.79;98566.53;5009772;28;20054;-95
2023/06/17 10:15:10;;;;;;;10.45;5.50;;;;;;;25.83;37.81;98571.03;5009473;28;20051;-94
2023/06/17 10:17:38;;;;;;;7.72;5.60;;;;;;;26.50;37.59;98561.09;5012146;28;20047;-93
2023/06/17 10:20:08;;;;;;;;;;;;;;;27.12;33.63;98596.91;5009309;28;20046;-96
2023/06/17 10:22:38;;;;;;;8.43;5.00;;;;;;;26.78;34.95;98564.75;5010051;28;20008;-94
2023/06/17 10:25:06;;;;;;;8.73;5.25;;;;;;;27.22;36.24;98584.09;5007545;28;20050;-94
2023/06/17 10:27:33;;;;;;;8.15;5.05;;;;;;;26.91;33.19;98560.81;5006450;28;20048;-96
2023/06/17 10:30:24;;;;;;;6.95;4.97;;;;;;;26.43;33.59;98560.78;5006742;28;20050;-94
2023/06/17 10:32:52;;;;;;;8.82;4.85;;;;;;;26.69;33.66;98565.63;5011532;28;20042;-94
2023/06/17 10:35:20;;;;;;;7.78;5.40;;;;;;;26.82;31.95;98559.84;5009670;28;20219;-93
2023/06/17 10:37:50;;;;;;;8.15;4.60;;;;;;;27.10;31.20;98557.97;5007540;28;20058;-94
2023/06/17 10:40:24;;;;;;;8.77;4.93;;;;;;;26.96;32.08;98551.16;5006114;28;20043;-95
2023/06/17 10:43:14;;;;;;;7.05;4.60;;;;;;;27.09;31.45;98559.00;5008532;28;20069;-95
2023/06/17 10:45:49;;;;;;;7.13;4.70;;;;;;;27.10;33.23;98562.59;5011791;28;20038;-96
2023/06/17 10:48:19;;;;;;;7.88;5.13;;;;;;;27.33;32.55;98555.72;5012823;28;20042;-96
2023/06/17 10:50:54;;;;;;;10.32;4.53;;;;;;;27.54;34.94;98570.97;5017297;28;20042;-96
2023/06/17 10:56:06;;;;;;;7.65;4.82;;;;;;;26.78;31.88;98596.59;5181349;22;20392;-96
2023/06/17 11:04:48;;;;;;;7.18;4.30;;;;;;;26.82;29.91;98563.41;5412893;22;20053;-96
2023/06/17 11:17:32;;;;;;;7.32;4.68;;;;;;;27.65;29.27;98559.81;5006502;28;20042;-94
2023/06/17 11:20:00;;;;;;;6.05;4.35;;;;;;;27.48;31.60;98572.47;4988791;28;20046;-94
2023/06/17 11:52:09;;;;;;;6.03;3.92;;;;;;;27.16;27.27;98542.88;807090;22;20333;-95
2023/06/17 11:54:36;;;;;;;6.85;4.18;;;;;;;27.31;27.60;98535.06;5007617;28;20050;-96
2023/06/17 11:57:02;;;;;;;7.05;4.18;;;;;;;27.35;28.32;98536.47;5006596;28;20423;-95
2023/06/17 11:59:30;;;;;;;8.07;4.13;;;;;;;27.64;27.89;98531.63;5007938;28;20476;-96
2023/06/17 12:01:58;;;;;;;6.32;4.10;;;;;;;27.37;28.91;98529.84;5008414;28;20049;-95
2023/06/17 12:04:29;;;;;;;6.82;4.40;;;;;;;27.41;27.47;98527.66;5006130;28;20104;-96
2023/06/17 12:06:56;;;;;;;6.72;4.20;;;;;;;27.20;27.22;98541.56;5009650;28;20053;-96
2023/06/17 12:09:23;;;;;;;6.05;4.40;;;;;;;27.34;27.19;98545.66;5015268;28;20048;-96
2023/06/17 12:12:05;;;;;;;7.90;4.20;;;;;;;27.48;27.08;98522.41;5018483;28;20042;-96
2023/06/17 12:14:43;;;;;;;8.35;4.68;;;;;;;27.43;30.17;98551.06;5017314;28;20033;-96